sensor_id;sensor_type;location;lat;lon;timestamp;P1;durP1;ratioP1;P2;durP2;ratioP2
7295;SDS011;40758;54.038;11.684;2023-07-28T00:00:39;9.73;;;4.68;;
7295;SDS011;40758;54.038;11.684;2023-07-28T00:03:06;8.23;;;4.68;;
7295;SDS011;40758;54.038;11.684;2023-07-28T00:05:32;9.40;;;4.25;;
7295;SDS011;40758;54.038;11.684;2023-07-28T00:07:59;8.45;;;5.35;;
7295;SDS011;40758;54.038;11.684;2023-07-28T00:10:26;8.38;;;5.32;;
7295;SDS011;40758;54.038;11.684;2023-07-28T00:12:52;10.10;;;5.40;;
7295;SDS011;40758;54.038;11.684;2023-07-28T00:15:20;8.90;;;4.40;;
7295;SDS011;40758;54.038;11.684;2023-07-28T00:17:49;8.23;;;5.00;;
7295;SDS011;40758;54.038;11.684;2023-07-28T00:20:17;8.50;;;4.78;;
7295;SDS011;40758;54.038;11.684;2023-07-28T00:22:44;8.02;;;4.88;;
7295;SDS011;40758;54.038;11.684;2023-07-28T00:25:10;9.40;;;5.50;;
7295;SDS011;40758;54.038;11.684;2023-07-28T00:27:37;9.20;;;5.63;;
7295;SDS011;40758;54.038;11.684;2023-07-28T00:30:04;11.10;;;4.88;;
7295;SDS011;40758;54.038;11.684;2023-07-28T00:32:31;10.07;;;5.18;;
7295;SDS011;40758;54.038;11.684;2023-07-28T00:34:58;11.25;;;6.00;;
7295;SDS011;40758;54.038;11.684;2023-07-28T00:37:25;11.40;;;6.32;;
7295;SDS011;40758;54.038;11.684;2023-07-28T00:39:51;9.32;;;4.78;;
7295;SDS011;40758;54.038;11.684;2023-07-28T00:42:18;9.27;;;5.15;;
7295;SDS011;40758;54.038;11.684;2023-07-28T00:44:45;11.52;;;5.82;;
7295;SDS011;40758;54.038;11.684;2023-07-28T00:47:11;11.32;;;5.85;;
7295;SDS011;40758;54.038;11.684;2023-07-28T00:49:39;10.27;;;6.45;;
7295;SDS011;40758;54.038;11.684;2023-07-28T00:52:07;10.73;;;5.25;;
7295;SDS011;40758;54.038;11.684;2023-07-28T00:54:34;11.80;;;6.50;;
7295;SDS011;40758;54.038;11.684;2023-07-28T00:57:01;10.43;;;5.75;;
7295;SDS011;40758;54.038;11.684;2023-07-28T00:59:29;12.35;;;5.68;;
7295;SDS011;40758;54.038;11.684;2023-07-28T01:01:57;10.80;;;5.88;;
7295;SDS011;40758;54.038;11.684;2023-07-28T01:04:23;11.57;;;6.43;;
7295;SDS011;40758;54.038;11.684;2023-07-28T01:07:04;10.98;;;6.55;;
7295;SDS011;40758;54.038;11.684;2023-07-28T01:09:50;10.20;;;5.38;;
7295;SDS011;40758;54.038;11.684;2023-07-28T01:12:23;12.90;;;6.72;;
7295;SDS011;40758;54.038;11.684;2023-07-28T01:14:50;11.45;;;5.97;;
7295;SDS011;40758;54.038;11.684;2023-07-28T01:17:17;11.60;;;6.07;;
7295;SDS011;40758;54.038;11.684;2023-07-28T01:19:45;13.20;;;5.95;;
7295;SDS011;40758;54.038;11.684;2023-07-28T01:24:51;11.05;;;5.25;;
7295;SDS011;40758;54.038;11.684;2023-07-28T01:27:21;12.88;;;6.47;;
7295;SDS011;40758;54.038;11.684;2023-07-28T01:29:48;11.80;;;5.72;;
7295;SDS011;40758;54.038;11.684;2023-07-28T01:32:15;10.15;;;5.47;;
7295;SDS011;40758;54.038;11.684;2023-07-28T01:34:42;11.88;;;6.55;;
7295;SDS011;40758;54.038;11.684;2023-07-28T01:37:08;11.23;;;5.45;;
7295;SDS011;40758;54.038;11.684;2023-07-28T01:39:35;11.07;;;6.32;;
7295;SDS011;40758;54.038;11.684;2023-07-28T01:42:02;11.13;;;6.32;;
7295;SDS011;40758;54.038;11.684;2023-07-28T01:44:29;15.35;;;6.90;;
7295;SDS011;40758;54.038;11.684;2023-07-28T01:46:56;13.68;;;6.80;;
7295;SDS011;40758;54.038;11.684;2023-07-28T01:49:22;11.07;;;5.90;;
7295;SDS011;40758;54.038;11.684;2023-07-28T01:51:49;12.38;;;5.57;;
7295;SDS011;40758;54.038;11.684;2023-07-28T01:54:16;12.52;;;6.43;;
7295;SDS011;40758;54.038;11.684;2023-07-28T01:56:42;11.95;;;6.35;;
7295;SDS011;40758;54.038;11.684;2023-07-28T01:59:09;15.52;;;6.38;;
7295;SDS011;40758;54.038;11.684;2023-07-28T02:01:36;14.00;;;6.03;;
7295;SDS011;40758;54.038;11.684;2023-07-28T02:04:03;15.68;;;8.52;;
7295;SDS011;40758;54.038;11.684;2023-07-28T02:06:30;14.43;;;7.00;;
7295;SDS011;40758;54.038;11.684;2023-07-28T02:08:58;14.27;;;7.28;;
7295;SDS011;40758;54.038;11.684;2023-07-28T02:11:24;16.27;;;7.60;;
7295;SDS011;40758;54.038;11.684;2023-07-28T02:13:51;14.50;;;6.88;;
7295;SDS011;40758;54.038;11.684;2023-07-28T02:16:18;14.07;;;7.40;;
7295;SDS011;40758;54.038;11.684;2023-07-28T02:18:47;14.70;;;7.28;;
7295;SDS011;40758;54.038;11.684;2023-07-28T02:21:14;13.50;;;6.57;;
7295;SDS011;40758;54.038;11.684;2023-07-28T02:23:40;16.17;;;7.63;;
7295;SDS011;40758;54.038;11.684;2023-07-28T02:26:07;14.57;;;6.95;;
7295;SDS011;40758;54.038;11.684;2023-07-28T02:28:35;14.98;;;7.38;;
7295;SDS011;40758;54.038;11.684;2023-07-28T02:31:02;15.70;;;8.13;;
7295;SDS011;40758;54.038;11.684;2023-07-28T02:33:30;15.35;;;6.78;;
7295;SDS011;40758;54.038;11.684;2023-07-28T02:35:58;16.67;;;7.50;;
7295;SDS011;40758;54.038;11.684;2023-07-28T02:38:24;15.23;;;8.55;;
7295;SDS011;40758;54.038;11.684;2023-07-28T02:40:51;15.60;;;7.13;;
7295;SDS011;40758;54.038;11.684;2023-07-28T02:43:18;17.35;;;8.07;;
7295;SDS011;40758;54.038;11.684;2023-07-28T02:45:48;13.13;;;7.30;;
7295;SDS011;40758;54.038;11.684;2023-07-28T02:48:19;15.98;;;7.78;;
7295;SDS011;40758;54.038;11.684;2023-07-28T02:50:49;17.08;;;8.00;;
7295;SDS011;40758;54.038;11.684;2023-07-28T02:53:17;17.95;;;8.45;;
7295;SDS011;40758;54.038;11.684;2023-07-28T02:55:45;18.42;;;9.25;;
7295;SDS011;40758;54.038;11.684;2023-07-28T02:58:13;16.88;;;9.25;;
7295;SDS011;40758;54.038;11.684;2023-07-28T03:00:40;15.15;;;7.18;;
7295;SDS011;40758;54.038;11.684;2023-07-28T03:03:08;15.55;;;9.02;;
7295;SDS011;40758;54.038;11.684;2023-07-28T03:05:39;17.05;;;8.85;;
7295;SDS011;40758;54.038;11.684;2023-07-28T03:08:06;16.88;;;8.73;;
7295;SDS011;40758;54.038;11.684;2023-07-28T03:10:33;17.33;;;7.72;;
7295;SDS011;40758;54.038;11.684;2023-07-28T03:12:59;15.70;;;8.73;;
7295;SDS011;40758;54.038;11.684;2023-07-28T03:15:26;17.40;;;8.07;;
7295;SDS011;40758;54.038;11.684;2023-07-28T03:17:53;18.95;;;8.43;;
7295;SDS011;40758;54.038;11.684;2023-07-28T03:20:21;15.45;;;8.20;;
7295;SDS011;40758;54.038;11.684;2023-07-28T03:22:48;15.95;;;7.30;;
7295;SDS011;40758;54.038;11.684;2023-07-28T03:25:15;17.77;;;7.22;;
7295;SDS011;40758;54.038;11.684;2023-07-28T03:27:41;14.15;;;8.15;;
7295;SDS011;40758;54.038;11.684;2023-07-28T03:30:08;14.98;;;8.43;;
7295;SDS011;40758;54.038;11.684;2023-07-28T03:32:37;13.57;;;7.47;;
7295;SDS011;40758;54.038;11.684;2023-07-28T03:35:04;17.35;;;7.82;;
7295;SDS011;40758;54.038;11.684;2023-07-28T03:37:32;15.00;;;7.03;;
7295;SDS011;40758;54.038;11.684;2023-07-28T03:39:59;13.88;;;8.05;;
7295;SDS011;40758;54.038;11.684;2023-07-28T03:42:26;15.98;;;7.35;;
7295;SDS011;40758;54.038;11.684;2023-07-28T03:44:53;17.65;;;8.13;;
7295;SDS011;40758;54.038;11.684;2023-07-28T03:47:20;13.63;;;7.75;;
7295;SDS011;40758;54.038;11.684;2023-07-28T03:49:47;16.30;;;8.05;;
7295;SDS011;40758;54.038;11.684;2023-07-28T03:52:14;13.63;;;6.75;;
7295;SDS011;40758;54.038;11.684;2023-07-28T03:54:40;15.43;;;7.72;;
7295;SDS011;40758;54.038;11.684;2023-07-28T03:57:08;16.67;;;7.63;;
7295;SDS011;40758;54.038;11.684;2023-07-28T03:59:35;15.60;;;7.80;;
7295;SDS011;40758;54.038;11.684;2023-07-28T04:02:02;17.42;;;8.57;;
7295;SDS011;40758;54.038;11.684;2023-07-28T04:04:32;14.77;;;7.10;;
7295;SDS011;40758;54.038;11.684;2023-07-28T04:06:59;19.20;;;8.32;;
7295;SDS011;40758;54.038;11.684;2023-07-28T04:09:26;18.77;;;8.05;;
7295;SDS011;40758;54.038;11.684;2023-07-28T04:11:53;18.67;;;8.57;;
7295;SDS011;40758;54.038;11.684;2023-07-28T04:14:20;16.55;;;7.72;;
7295;SDS011;40758;54.038;11.684;2023-07-28T04:16:46;15.50;;;7.63;;
7295;SDS011;40758;54.038;11.684;2023-07-28T04:19:13;15.10;;;7.72;;
7295;SDS011;40758;54.038;11.684;2023-07-28T04:21:40;14.93;;;6.32;;
7295;SDS011;40758;54.038;11.684;2023-07-28T04:26:35;14.25;;;6.88;;
7295;SDS011;40758;54.038;11.684;2023-07-28T04:29:03;14.73;;;7.10;;
7295;SDS011;40758;54.038;11.684;2023-07-28T04:31:30;17.95;;;8.00;;
7295;SDS011;40758;54.038;11.684;2023-07-28T04:33:57;14.52;;;7.85;;
7295;SDS011;40758;54.038;11.684;2023-07-28T04:36:23;17.73;;;8.73;;
7295;SDS011;40758;54.038;11.684;2023-07-28T04:38:50;14.98;;;8.25;;
7295;SDS011;40758;54.038;11.684;2023-07-28T04:41:17;17.45;;;7.22;;
7295;SDS011;40758;54.038;11.684;2023-07-28T04:43:43;16.27;;;8.88;;
7295;SDS011;40758;54.038;11.684;2023-07-28T04:46:10;15.60;;;7.70;;
7295;SDS011;40758;54.038;11.684;2023-07-28T04:48:37;15.88;;;8.70;;
7295;SDS011;40758;54.038;11.684;2023-07-28T04:51:04;17.42;;;7.97;;
7295;SDS011;40758;54.038;11.684;2023-07-28T04:53:31;20.45;;;9.25;;
7295;SDS011;40758;54.038;11.684;2023-07-28T04:55:58;19.02;;;9.77;;
7295;SDS011;40758;54.038;11.684;2023-07-28T04:58:24;19.17;;;9.52;;
7295;SDS011;40758;54.038;11.684;2023-07-28T05:00:51;18.40;;;8.88;;
7295;SDS011;40758;54.038;11.684;2023-07-28T05:03:18;20.10;;;8.77;;
7295;SDS011;40758;54.038;11.684;2023-07-28T05:05:45;18.77;;;8.55;;
7295;SDS011;40758;54.038;11.684;2023-07-28T05:08:12;18.65;;;9.10;;
7295;SDS011;40758;54.038;11.684;2023-07-28T05:10:40;18.27;;;9.13;;
7295;SDS011;40758;54.038;11.684;2023-07-28T05:13:07;18.88;;;8.93;;
7295;SDS011;40758;54.038;11.684;2023-07-28T05:15:34;13.88;;;7.75;;
7295;SDS011;40758;54.038;11.684;2023-07-28T05:18:01;17.15;;;8.77;;
7295;SDS011;40758;54.038;11.684;2023-07-28T05:20:28;17.17;;;8.60;;
7295;SDS011;40758;54.038;11.684;2023-07-28T05:22:54;17.30;;;8.48;;
7295;SDS011;40758;54.038;11.684;2023-07-28T05:25:21;16.55;;;8.48;;
7295;SDS011;40758;54.038;11.684;2023-07-28T05:27:48;17.50;;;9.68;;
7295;SDS011;40758;54.038;11.684;2023-07-28T05:30:15;17.73;;;10.40;;
7295;SDS011;40758;54.038;11.684;2023-07-28T05:32:42;14.77;;;8.25;;
7295;SDS011;40758;54.038;11.684;2023-07-28T05:35:09;14.98;;;8.43;;
7295;SDS011;40758;54.038;11.684;2023-07-28T05:37:35;15.48;;;8.50;;
7295;SDS011;40758;54.038;11.684;2023-07-28T05:40:02;14.80;;;8.65;;
7295;SDS011;40758;54.038;11.684;2023-07-28T05:42:29;12.73;;;8.02;;
7295;SDS011;40758;54.038;11.684;2023-07-28T05:44:56;14.65;;;7.50;;
7295;SDS011;40758;54.038;11.684;2023-07-28T05:47:23;13.93;;;7.35;;
7295;SDS011;40758;54.038;11.684;2023-07-28T05:49:50;13.13;;;7.55;;
7295;SDS011;40758;54.038;11.684;2023-07-28T05:52:20;12.35;;;6.57;;
7295;SDS011;40758;54.038;11.684;2023-07-28T05:54:48;11.43;;;6.10;;
7295;SDS011;40758;54.038;11.684;2023-07-28T05:57:15;11.35;;;7.63;;
7295;SDS011;40758;54.038;11.684;2023-07-28T05:59:42;10.65;;;6.43;;
7295;SDS011;40758;54.038;11.684;2023-07-28T06:02:09;10.70;;;6.45;;
7295;SDS011;40758;54.038;11.684;2023-07-28T06:04:36;10.95;;;6.00;;
7295;SDS011;40758;54.038;11.684;2023-07-28T06:07:03;8.95;;;5.70;;
7295;SDS011;40758;54.038;11.684;2023-07-28T06:09:29;12.85;;;5.25;;
7295;SDS011;40758;54.038;11.684;2023-07-28T06:11:56;13.27;;;5.63;;
7295;SDS011;40758;54.038;11.684;2023-07-28T06:14:23;10.68;;;5.40;;
7295;SDS011;40758;54.038;11.684;2023-07-28T06:16:50;10.18;;;6.38;;
7295;SDS011;40758;54.038;11.684;2023-07-28T06:19:16;8.02;;;3.72;;
7295;SDS011;40758;54.038;11.684;2023-07-28T06:21:50;10.20;;;5.60;;
7295;SDS011;40758;54.038;11.684;2023-07-28T06:24:17;8.80;;;6.20;;
7295;SDS011;40758;54.038;11.684;2023-07-28T06:26:46;8.07;;;4.90;;
7295;SDS011;40758;54.038;11.684;2023-07-28T06:29:13;9.43;;;5.22;;
7295;SDS011;40758;54.038;11.684;2023-07-28T06:31:39;8.77;;;5.32;;
7295;SDS011;40758;54.038;11.684;2023-07-28T06:34:07;10.18;;;4.93;;
7295;SDS011;40758;54.038;11.684;2023-07-28T06:36:34;9.25;;;5.70;;
7295;SDS011;40758;54.038;11.684;2023-07-28T06:39:01;8.90;;;5.20;;
7295;SDS011;40758;54.038;11.684;2023-07-28T06:41:28;8.13;;;4.97;;
7295;SDS011;40758;54.038;11.684;2023-07-28T06:43:54;7.38;;;4.38;;
7295;SDS011;40758;54.038;11.684;2023-07-28T06:46:21;8.20;;;5.55;;
7295;SDS011;40758;54.038;11.684;2023-07-28T06:48:48;8.38;;;4.60;;
7295;SDS011;40758;54.038;11.684;2023-07-28T06:51:15;7.07;;;3.80;;
7295;SDS011;40758;54.038;11.684;2023-07-28T06:53:42;6.40;;;4.25;;
7295;SDS011;40758;54.038;11.684;2023-07-28T06:56:08;5.28;;;3.97;;
7295;SDS011;40758;54.038;11.684;2023-07-28T06:58:35;4.70;;;2.58;;
7295;SDS011;40758;54.038;11.684;2023-07-28T07:01:02;6.40;;;2.30;;
7295;SDS011;40758;54.038;11.684;2023-07-28T07:03:29;5.30;;;2.22;;
7295;SDS011;40758;54.038;11.684;2023-07-28T07:05:55;3.90;;;2.38;;
7295;SDS011;40758;54.038;11.684;2023-07-28T07:08:23;4.55;;;2.50;;
7295;SDS011;40758;54.038;11.684;2023-07-28T07:10:50;3.80;;;2.83;;
7295;SDS011;40758;54.038;11.684;2023-07-28T07:13:17;4.07;;;2.00;;
7295;SDS011;40758;54.038;11.684;2023-07-28T07:15:45;3.38;;;1.73;;
7295;SDS011;40758;54.038;11.684;2023-07-28T07:18:12;4.18;;;1.98;;
7295;SDS011;40758;54.038;11.684;2023-07-28T07:20:39;3.38;;;1.60;;
7295;SDS011;40758;54.038;11.684;2023-07-28T07:23:06;5.07;;;2.25;;
7295;SDS011;40758;54.038;11.684;2023-07-28T07:25:33;3.90;;;2.83;;
7295;SDS011;40758;54.038;11.684;2023-07-28T07:28:00;4.63;;;2.92;;
7295;SDS011;40758;54.038;11.684;2023-07-28T07:30:27;3.78;;;1.67;;
7295;SDS011;40758;54.038;11.684;2023-07-28T07:33:06;4.22;;;2.03;;
7295;SDS011;40758;54.038;11.684;2023-07-28T07:35:37;4.72;;;2.70;;
7295;SDS011;40758;54.038;11.684;2023-07-28T07:38:10;4.45;;;2.78;;
7295;SDS011;40758;54.038;11.684;2023-07-28T07:40:41;3.78;;;2.40;;
7295;SDS011;40758;54.038;11.684;2023-07-28T07:43:09;4.40;;;2.85;;
7295;SDS011;40758;54.038;11.684;2023-07-28T07:45:50;5.20;;;1.98;;
7295;SDS011;40758;54.038;11.684;2023-07-28T07:48:21;4.68;;;1.80;;
7295;SDS011;40758;54.038;11.684;2023-07-28T07:50:49;4.18;;;2.15;;
7295;SDS011;40758;54.038;11.684;2023-07-28T07:53:21;4.05;;;1.63;;
7295;SDS011;40758;54.038;11.684;2023-07-28T07:55:59;4.25;;;2.33;;
7295;SDS011;40758;54.038;11.684;2023-07-28T07:58:28;4.35;;;2.15;;
7295;SDS011;40758;54.038;11.684;2023-07-28T08:01:00;3.45;;;1.92;;
7295;SDS011;40758;54.038;11.684;2023-07-28T08:03:46;4.25;;;2.05;;
7295;SDS011;40758;54.038;11.684;2023-07-28T08:06:25;3.42;;;1.75;;
7295;SDS011;40758;54.038;11.684;2023-07-28T08:09:24;4.80;;;2.45;;
7295;SDS011;40758;54.038;11.684;2023-07-28T08:11:59;5.88;;;3.20;;
7295;SDS011;40758;54.038;11.684;2023-07-28T08:14:36;3.75;;;2.40;;
7295;SDS011;40758;54.038;11.684;2023-07-28T08:17:26;3.47;;;1.92;;
7295;SDS011;40758;54.038;11.684;2023-07-28T08:19:56;3.67;;;1.42;;
7295;SDS011;40758;54.038;11.684;2023-07-28T08:22:26;3.08;;;1.73;;
7295;SDS011;40758;54.038;11.684;2023-07-28T08:25:07;3.65;;;1.60;;
7295;SDS011;40758;54.038;11.684;2023-07-28T08:27:39;3.58;;;2.03;;
7295;SDS011;40758;54.038;11.684;2023-07-28T08:30:09;2.70;;;1.13;;
7295;SDS011;40758;54.038;11.684;2023-07-28T08:32:47;2.85;;;2.03;;
7295;SDS011;40758;54.038;11.684;2023-07-28T08:35:20;2.35;;;1.42;;
7295;SDS011;40758;54.038;11.684;2023-07-28T08:37:50;2.95;;;1.48;;
7295;SDS011;40758;54.038;11.684;2023-07-28T08:40:21;3.47;;;1.92;;
7295;SDS011;40758;54.038;11.684;2023-07-28T08:42:49;2.92;;;1.98;;
7295;SDS011;40758;54.038;11.684;2023-07-28T08:45:22;3.53;;;1.25;;
7295;SDS011;40758;54.038;11.684;2023-07-28T08:47:53;2.85;;;1.23;;
7295;SDS011;40758;54.038;11.684;2023-07-28T08:50:24;3.47;;;1.48;;
7295;SDS011;40758;54.038;11.684;2023-07-28T08:52:56;4.03;;;1.65;;
7295;SDS011;40758;54.038;11.684;2023-07-28T08:55:23;3.47;;;1.50;;
7295;SDS011;40758;54.038;11.684;2023-07-28T08:57:54;2.72;;;1.42;;
7295;SDS011;40758;54.038;11.684;2023-07-28T09:00:22;2.60;;;1.30;;
7295;SDS011;40758;54.038;11.684;2023-07-28T09:02:53;3.42;;;1.92;;
7295;SDS011;40758;54.038;11.684;2023-07-28T09:05:23;2.47;;;0.80;;
7295;SDS011;40758;54.038;11.684;2023-07-28T09:08:06;3.58;;;1.17;;
7295;SDS011;40758;54.038;11.684;2023-07-28T09:10:54;3.33;;;2.20;;
7295;SDS011;40758;54.038;11.684;2023-07-28T09:13:40;3.22;;;1.35;;
7295;SDS011;40758;54.038;11.684;2023-07-28T09:16:18;2.92;;;1.80;;
7295;SDS011;40758;54.038;11.684;2023-07-28T09:19:03;4.07;;;1.85;;
7295;SDS011;40758;54.038;11.684;2023-07-28T09:21:35;3.55;;;1.90;;
7295;SDS011;40758;54.038;11.684;2023-07-28T09:24:06;4.18;;;1.63;;
7295;SDS011;40758;54.038;11.684;2023-07-28T09:29:14;3.83;;;1.73;;
7295;SDS011;40758;54.038;11.684;2023-07-28T09:31:47;3.75;;;1.98;;
7295;SDS011;40758;54.038;11.684;2023-07-28T09:34:25;4.00;;;1.77;;
7295;SDS011;40758;54.038;11.684;2023-07-28T09:36:54;3.22;;;1.25;;
7295;SDS011;40758;54.038;11.684;2023-07-28T09:39:23;3.60;;;1.75;;
7295;SDS011;40758;54.038;11.684;2023-07-28T09:41:52;3.33;;;1.38;;
7295;SDS011;40758;54.038;11.684;2023-07-28T09:44:20;2.83;;;1.30;;
7295;SDS011;40758;54.038;11.684;2023-07-28T09:49:20;4.35;;;1.85;;
7295;SDS011;40758;54.038;11.684;2023-07-28T09:52:04;3.15;;;1.58;;
7295;SDS011;40758;54.038;11.684;2023-07-28T09:54:38;3.00;;;1.30;;
7295;SDS011;40758;54.038;11.684;2023-07-28T09:57:16;3.42;;;1.25;;
7295;SDS011;40758;54.038;11.684;2023-07-28T09:59:47;3.78;;;1.50;;
7295;SDS011;40758;54.038;11.684;2023-07-28T10:02:14;2.83;;;1.52;;
7295;SDS011;40758;54.038;11.684;2023-07-28T10:04:42;2.85;;;1.33;;
7295;SDS011;40758;54.038;11.684;2023-07-28T10:07:09;2.60;;;1.20;;
7295;SDS011;40758;54.038;11.684;2023-07-28T10:09:36;3.25;;;1.90;;
7295;SDS011;40758;54.038;11.684;2023-07-28T10:12:04;4.68;;;3.25;;
7295;SDS011;40758;54.038;11.684;2023-07-28T10:14:35;5.07;;;2.17;;
7295;SDS011;40758;54.038;11.684;2023-07-28T10:17:04;5.20;;;2.88;;
7295;SDS011;40758;54.038;11.684;2023-07-28T10:19:35;3.70;;;2.08;;
7295;SDS011;40758;54.038;11.684;2023-07-28T10:22:09;5.15;;;3.05;;
7295;SDS011;40758;54.038;11.684;2023-07-28T10:24:53;4.03;;;2.03;;
7295;SDS011;40758;54.038;11.684;2023-07-28T10:30:02;4.10;;;2.55;;
7295;SDS011;40758;54.038;11.684;2023-07-28T10:32:38;4.20;;;1.73;;
7295;SDS011;40758;54.038;11.684;2023-07-28T10:35:30;4.00;;;1.60;;
7295;SDS011;40758;54.038;11.684;2023-07-28T10:37:53;3.72;;;1.40;;
7295;SDS011;40758;54.038;11.684;2023-07-28T10:40:30;3.78;;;1.80;;
7295;SDS011;40758;54.038;11.684;2023-07-28T10:43:00;4.72;;;1.67;;
7295;SDS011;40758;54.038;11.684;2023-07-28T10:45:29;3.90;;;1.55;;
7295;SDS011;40758;54.038;11.684;2023-07-28T10:47:57;4.07;;;1.48;;
7295;SDS011;40758;54.038;11.684;2023-07-28T10:50:30;4.82;;;2.17;;
7295;SDS011;40758;54.038;11.684;2023-07-28T10:55:25;4.97;;;2.63;;
7295;SDS011;40758;54.038;11.684;2023-07-28T10:57:53;4.90;;;2.60;;
7295;SDS011;40758;54.038;11.684;2023-07-28T11:00:22;3.83;;;3.13;;
7295;SDS011;40758;54.038;11.684;2023-07-28T11:02:50;4.60;;;1.50;;
7295;SDS011;40758;54.038;11.684;2023-07-28T11:05:28;4.70;;;2.25;;
7295;SDS011;40758;54.038;11.684;2023-07-28T11:07:57;2.47;;;1.02;;
7295;SDS011;40758;54.038;11.684;2023-07-28T11:10:29;2.65;;;1.33;;
7295;SDS011;40758;54.038;11.684;2023-07-28T11:12:58;2.72;;;1.27;;
7295;SDS011;40758;54.038;11.684;2023-07-28T11:15:41;4.15;;;2.60;;
7295;SDS011;40758;54.038;11.684;2023-07-28T11:18:08;4.68;;;2.10;;
7295;SDS011;40758;54.038;11.684;2023-07-28T11:20:36;3.42;;;2.08;;
7295;SDS011;40758;54.038;11.684;2023-07-28T11:23:03;3.45;;;2.13;;
7295;SDS011;40758;54.038;11.684;2023-07-28T11:25:32;4.05;;;1.17;;
7295;SDS011;40758;54.038;11.684;2023-07-28T11:28:00;2.55;;;1.10;;
7295;SDS011;40758;54.038;11.684;2023-07-28T11:30:29;2.55;;;1.95;;
7295;SDS011;40758;54.038;11.684;2023-07-28T11:32:57;3.53;;;1.38;;
7295;SDS011;40758;54.038;11.684;2023-07-28T11:35:24;2.85;;;1.42;;
7295;SDS011;40758;54.038;11.684;2023-07-28T11:37:51;3.63;;;2.00;;
7295;SDS011;40758;54.038;11.684;2023-07-28T11:40:20;3.60;;;1.55;;
7295;SDS011;40758;54.038;11.684;2023-07-28T11:42:49;3.72;;;2.72;;
7295;SDS011;40758;54.038;11.684;2023-07-28T11:45:18;2.92;;;1.95;;
7295;SDS011;40758;54.038;11.684;2023-07-28T11:47:59;4.05;;;1.52;;
7295;SDS011;40758;54.038;11.684;2023-07-28T11:50:39;4.07;;;2.78;;
7295;SDS011;40758;54.038;11.684;2023-07-28T11:53:10;2.60;;;1.50;;
7295;SDS011;40758;54.038;11.684;2023-07-28T11:55:40;3.42;;;1.50;;
7295;SDS011;40758;54.038;11.684;2023-07-28T11:58:08;3.63;;;1.38;;
7295;SDS011;40758;54.038;11.684;2023-07-28T12:00:35;3.15;;;1.67;;
7295;SDS011;40758;54.038;11.684;2023-07-28T12:03:07;2.85;;;0.93;;
7295;SDS011;40758;54.038;11.684;2023-07-28T12:05:58;2.97;;;1.88;;
7295;SDS011;40758;54.038;11.684;2023-07-28T12:08:38;3.30;;;1.35;;
7295;SDS011;40758;54.038;11.684;2023-07-28T12:11:05;3.85;;;2.92;;
7295;SDS011;40758;54.038;11.684;2023-07-28T12:13:48;3.42;;;1.48;;
7295;SDS011;40758;54.038;11.684;2023-07-28T12:16:31;3.05;;;0.77;;
7295;SDS011;40758;54.038;11.684;2023-07-28T12:19:13;2.28;;;1.23;;
7295;SDS011;40758;54.038;11.684;2023-07-28T12:21:40;3.20;;;2.38;;
7295;SDS011;40758;54.038;11.684;2023-07-28T12:24:07;3.10;;;2.72;;
7295;SDS011;40758;54.038;11.684;2023-07-28T12:26:34;3.92;;;2.50;;
7295;SDS011;40758;54.038;11.684;2023-07-28T12:29:05;4.10;;;1.73;;
7295;SDS011;40758;54.038;11.684;2023-07-28T12:31:35;3.83;;;2.45;;
7295;SDS011;40758;54.038;11.684;2023-07-28T12:34:11;2.83;;;1.23;;
7295;SDS011;40758;54.038;11.684;2023-07-28T12:36:51;3.58;;;2.58;;
7295;SDS011;40758;54.038;11.684;2023-07-28T12:39:20;3.30;;;1.92;;
7295;SDS011;40758;54.038;11.684;2023-07-28T12:41:49;8.93;;;2.83;;
7295;SDS011;40758;54.038;11.684;2023-07-28T12:44:37;3.63;;;3.03;;
7295;SDS011;40758;54.038;11.684;2023-07-28T12:47:07;4.15;;;2.63;;
7295;SDS011;40758;54.038;11.684;2023-07-28T12:49:34;3.30;;;2.20;;
7295;SDS011;40758;54.038;11.684;2023-07-28T12:52:01;3.45;;;1.83;;
7295;SDS011;40758;54.038;11.684;2023-07-28T12:54:31;4.85;;;2.38;;
7295;SDS011;40758;54.038;11.684;2023-07-28T12:57:10;4.85;;;1.98;;
7295;SDS011;40758;54.038;11.684;2023-07-28T12:59:39;2.90;;;2.10;;
7295;SDS011;40758;54.038;11.684;2023-07-28T13:02:09;3.20;;;1.92;;
7295;SDS011;40758;54.038;11.684;2023-07-28T13:04:37;4.07;;;2.00;;
7295;SDS011;40758;54.038;11.684;2023-07-28T13:07:04;2.97;;;1.80;;
7295;SDS011;40758;54.038;11.684;2023-07-28T13:09:34;2.53;;;1.45;;
7295;SDS011;40758;54.038;11.684;2023-07-28T13:14:31;4.25;;;2.75;;
7295;SDS011;40758;54.038;11.684;2023-07-28T13:16:58;3.03;;;2.50;;
7295;SDS011;40758;54.038;11.684;2023-07-28T13:19:24;2.85;;;2.25;;
7295;SDS011;40758;54.038;11.684;2023-07-28T13:21:51;4.22;;;2.00;;
7295;SDS011;40758;54.038;11.684;2023-07-28T13:24:18;2.72;;;1.52;;
7295;SDS011;40758;54.038;11.684;2023-07-28T13:26:45;2.88;;;1.70;;
7295;SDS011;40758;54.038;11.684;2023-07-28T13:29:11;4.82;;;2.05;;
7295;SDS011;40758;54.038;11.684;2023-07-28T13:31:38;3.85;;;1.55;;
7295;SDS011;40758;54.038;11.684;2023-07-28T13:34:05;2.63;;;1.98;;
7295;SDS011;40758;54.038;11.684;2023-07-28T13:36:31;3.17;;;2.15;;
7295;SDS011;40758;54.038;11.684;2023-07-28T13:38:58;2.95;;;2.03;;
7295;SDS011;40758;54.038;11.684;2023-07-28T13:41:26;4.53;;;1.88;;
7295;SDS011;40758;54.038;11.684;2023-07-28T13:46:21;2.25;;;1.63;;
7295;SDS011;40758;54.038;11.684;2023-07-28T13:48:48;2.72;;;1.70;;
7295;SDS011;40758;54.038;11.684;2023-07-28T13:51:19;2.38;;;2.05;;
7295;SDS011;40758;54.038;11.684;2023-07-28T13:53:53;2.90;;;2.47;;
7295;SDS011;40758;54.038;11.684;2023-07-28T13:56:23;3.30;;;1.77;;
7295;SDS011;40758;54.038;11.684;2023-07-28T13:58:50;2.30;;;1.38;;
7295;SDS011;40758;54.038;11.684;2023-07-28T14:01:18;2.90;;;2.38;;
7295;SDS011;40758;54.038;11.684;2023-07-28T14:03:45;2.85;;;1.73;;
7295;SDS011;40758;54.038;11.684;2023-07-28T14:06:12;4.03;;;2.45;;
7295;SDS011;40758;54.038;11.684;2023-07-28T14:08:39;3.97;;;2.38;;
7295;SDS011;40758;54.038;11.684;2023-07-28T14:11:05;6.38;;;2.10;;
7295;SDS011;40758;54.038;11.684;2023-07-28T14:13:32;2.60;;;2.30;;
7295;SDS011;40758;54.038;11.684;2023-07-28T14:15:59;3.75;;;1.75;;
7295;SDS011;40758;54.038;11.684;2023-07-28T14:18:26;2.40;;;1.67;;
7295;SDS011;40758;54.038;11.684;2023-07-28T14:20:53;2.40;;;1.73;;
7295;SDS011;40758;54.038;11.684;2023-07-28T14:25:52;3.13;;;2.03;;
7295;SDS011;40758;54.038;11.684;2023-07-28T14:30:47;2.05;;;1.35;;
7295;SDS011;40758;54.038;11.684;2023-07-28T14:33:14;3.58;;;1.95;;
7295;SDS011;40758;54.038;11.684;2023-07-28T14:35:46;2.55;;;1.80;;
7295;SDS011;40758;54.038;11.684;2023-07-28T14:38:14;3.33;;;1.88;;
7295;SDS011;40758;54.038;11.684;2023-07-28T14:40:41;2.30;;;1.70;;
7295;SDS011;40758;54.038;11.684;2023-07-28T14:43:10;2.15;;;1.60;;
7295;SDS011;40758;54.038;11.684;2023-07-28T14:45:37;3.25;;;1.83;;
7295;SDS011;40758;54.038;11.684;2023-07-28T14:48:04;3.25;;;2.45;;
7295;SDS011;40758;54.038;11.684;2023-07-28T14:50:31;2.65;;;2.08;;
7295;SDS011;40758;54.038;11.684;2023-07-28T14:52:58;2.67;;;1.52;;
7295;SDS011;40758;54.038;11.684;2023-07-28T14:55:26;3.20;;;1.88;;
7295;SDS011;40758;54.038;11.684;2023-07-28T14:57:53;2.92;;;2.63;;
7295;SDS011;40758;54.038;11.684;2023-07-28T15:00:19;2.60;;;2.22;;
7295;SDS011;40758;54.038;11.684;2023-07-28T15:02:46;2.45;;;1.77;;
7295;SDS011;40758;54.038;11.684;2023-07-28T15:05:13;2.70;;;2.35;;
7295;SDS011;40758;54.038;11.684;2023-07-28T15:07:40;1.98;;;0.93;;
7295;SDS011;40758;54.038;11.684;2023-07-28T15:10:07;2.20;;;1.27;;
7295;SDS011;40758;54.038;11.684;2023-07-28T15:12:34;2.50;;;1.52;;
7295;SDS011;40758;54.038;11.684;2023-07-28T15:15:01;2.28;;;1.65;;
7295;SDS011;40758;54.038;11.684;2023-07-28T15:17:28;2.53;;;1.27;;
7295;SDS011;40758;54.038;11.684;2023-07-28T15:19:55;2.45;;;1.92;;